Gulgong Post Office, Australia

6:59 PM AEDT on January 22, 2017 (GMT +1100)
Yarrawonga | | Change Station

Elev 1877 ft 32.34 °S, 149.68 °E | Updated 4 minutes ago

Clear
Clear
87.4 °F
Feels Like 86 °F
N
2.0
Wind Variable Wind from SW
Gusts 4.0 mph

Today
High -- | Low -- °F
--% Chance of Precip.
Yesterday
High -- | Low -- °F
Precip. -- in
Pressure 29.83 in
Visibility 6.2 miles
Clouds
Heat Index 86 °F
Dew Point 56 °F
Humidity 34%
Rainfall 0.00 in
Snow Depth Not available.
6:16 AM 8:09 PM
Waning Crescent, 28% visible
METAR YSDU 220730Z AUTO 04007KT 9999 // NCD 34/15 Q1010 RF00.0/000.0
Pressure 29.83 in
Visibility 6.2 miles
Clouds
Heat Index 86 °F
Dew Point 56 °F
Humidity 34%
Rainfall 0.00 in
Snow Depth Not available.
6:16 AM 8:09 PM
Waning Crescent, 28% visible
METAR YSDU 220730Z AUTO 04007KT 9999 // NCD 34/15 Q1010 RF00.0/000.0

Get Your Daily Forecast Email!

Thanks for signing up!

Be on the lookout for a verification email in your inbox.

You'll start receiving the daily forecast at 8 AM.

×

10-Day Weather Forecast

×

Almanac

Astronomy

Jan. 22, 2017 Rise Set
Actual Time
Civil Twilight
Nautical Twilight
Astronomical Twilight
Moon
Length of Visible Light
Length of Day
Tomorrow will be .
, % of the Moon is Illuminated

Today's Extremes

Country Highs Country Lows

Community

WunderPhotos

Upload Photos

1,962,540 photos uploaded!

WunderBlog® & News

Nearby

Air Quality

  Air Quality AQ Index Pollutant
Not available.

Snow Depth

Station Depth Elevation

Earthquake Activity

City Distance Mag. Time & Date
Minimum magnitude displayed is 2.5.

Coastal Water Temperatures

Place Temperature

Stations

Nearby Weather Stations

Station Location Temp. Windchill Dew Point Humidity Wind Precip. Elev Updated Type